sensor_id;sensor_type;location;lat;lon;timestamp;P1;durP1;ratioP1;P2;durP2;ratioP2
33826;SDS011;20128;45.582;5.298;2023-10-08T00:02:25;14.43;;;4.53;;
33826;SDS011;20128;45.582;5.298;2023-10-08T00:04:52;10.85;;;4.03;;
33826;SDS011;20128;45.582;5.298;2023-10-08T00:07:19;12.07;;;5.00;;
33826;SDS011;20128;45.582;5.298;2023-10-08T00:09:51;11.60;;;4.75;;
33826;SDS011;20128;45.582;5.298;2023-10-08T00:12:18;11.77;;;4.65;;
33826;SDS011;20128;45.582;5.298;2023-10-08T00:14:47;13.43;;;4.43;;
33826;SDS011;20128;45.582;5.298;2023-10-08T00:17:18;15.30;;;5.05;;
33826;SDS011;20128;45.582;5.298;2023-10-08T00:19:44;12.68;;;4.78;;
33826;SDS011;20128;45.582;5.298;2023-10-08T00:22:10;15.23;;;5.05;;
33826;SDS011;20128;45.582;5.298;2023-10-08T00:24:38;14.57;;;5.60;;
33826;SDS011;20128;45.582;5.298;2023-10-08T00:27:07;8.95;;;4.03;;
33826;SDS011;20128;45.582;5.298;2023-10-08T00:29:33;12.32;;;4.40;;
33826;SDS011;20128;45.582;5.298;2023-10-08T00:31:59;10.00;;;4.05;;
33826;SDS011;20128;45.582;5.298;2023-10-08T00:34:27;17.33;;;5.05;;
33826;SDS011;20128;45.582;5.298;2023-10-08T00:36:54;12.40;;;4.03;;
33826;SDS011;20128;45.582;5.298;2023-10-08T00:39:20;14.38;;;4.90;;
33826;SDS011;20128;45.582;5.298;2023-10-08T00:41:50;15.00;;;4.50;;
33826;SDS011;20128;45.582;5.298;2023-10-08T00:44:23;13.35;;;4.47;;
33826;SDS011;20128;45.582;5.298;2023-10-08T00:46:54;13.90;;;5.18;;
33826;SDS011;20128;45.582;5.298;2023-10-08T00:49:26;12.63;;;4.97;;
33826;SDS011;20128;45.582;5.298;2023-10-08T00:52:13;10.18;;;3.85;;
33826;SDS011;20128;45.582;5.298;2023-10-08T00:54:40;10.32;;;4.22;;
33826;SDS011;20128;45.582;5.298;2023-10-08T00:57:20;22.05;;;5.20;;
33826;SDS011;20128;45.582;5.298;2023-10-08T00:59:48;11.35;;;4.40;;
33826;SDS011;20128;45.582;5.298;2023-10-08T01:02:22;12.77;;;4.50;;
33826;SDS011;20128;45.582;5.298;2023-10-08T01:04:54;11.93;;;4.68;;
33826;SDS011;20128;45.582;5.298;2023-10-08T01:07:23;8.98;;;4.43;;
33826;SDS011;20128;45.582;5.298;2023-10-08T01:09:50;10.88;;;4.32;;
33826;SDS011;20128;45.582;5.298;2023-10-08T01:12:17;10.57;;;4.55;;
33826;SDS011;20128;45.582;5.298;2023-10-08T01:14:48;12.63;;;4.95;;
33826;SDS011;20128;45.582;5.298;2023-10-08T01:17:14;14.10;;;4.55;;
33826;SDS011;20128;45.582;5.298;2023-10-08T01:19:43;15.18;;;4.25;;
33826;SDS011;20128;45.582;5.298;2023-10-08T01:22:11;13.75;;;4.97;;
33826;SDS011;20128;45.582;5.298;2023-10-08T01:24:44;12.07;;;4.87;;
33826;SDS011;20128;45.582;5.298;2023-10-08T01:27:13;11.20;;;5.05;;
33826;SDS011;20128;45.582;5.298;2023-10-08T01:29:48;15.70;;;4.38;;
33826;SDS011;20128;45.582;5.298;2023-10-08T01:32:20;10.27;;;4.53;;
33826;SDS011;20128;45.582;5.298;2023-10-08T01:34:47;12.32;;;4.68;;
33826;SDS011;20128;45.582;5.298;2023-10-08T01:37:16;16.45;;;6.50;;
33826;SDS011;20128;45.582;5.298;2023-10-08T01:39:43;15.52;;;5.35;;
33826;SDS011;20128;45.582;5.298;2023-10-08T01:42:15;12.95;;;4.68;;
33826;SDS011;20128;45.582;5.298;2023-10-08T01:44:46;11.32;;;4.72;;
33826;SDS011;20128;45.582;5.298;2023-10-08T01:47:14;9.50;;;3.97;;
33826;SDS011;20128;45.582;5.298;2023-10-08T01:49:41;18.60;;;5.28;;
33826;SDS011;20128;45.582;5.298;2023-10-08T01:52:11;13.52;;;4.45;;
33826;SDS011;20128;45.582;5.298;2023-10-08T01:54:46;13.15;;;5.60;;
33826;SDS011;20128;45.582;5.298;2023-10-08T01:57:18;14.48;;;4.78;;
33826;SDS011;20128;45.582;5.298;2023-10-08T01:59:43;12.07;;;3.97;;
33826;SDS011;20128;45.582;5.298;2023-10-08T02:02:09;14.93;;;4.60;;
33826;SDS011;20128;45.582;5.298;2023-10-08T02:04:35;13.07;;;4.38;;
33826;SDS011;20128;45.582;5.298;2023-10-08T02:07:04;12.85;;;5.40;;
33826;SDS011;20128;45.582;5.298;2023-10-08T02:09:33;12.48;;;4.03;;
33826;SDS011;20128;45.582;5.298;2023-10-08T02:11:59;11.57;;;4.90;;
33826;SDS011;20128;45.582;5.298;2023-10-08T02:14:25;14.82;;;4.40;;
33826;SDS011;20128;45.582;5.298;2023-10-08T02:16:55;12.00;;;4.35;;
33826;SDS011;20128;45.582;5.298;2023-10-08T02:19:24;10.75;;;4.50;;
33826;SDS011;20128;45.582;5.298;2023-10-08T02:21:55;13.25;;;4.28;;
33826;SDS011;20128;45.582;5.298;2023-10-08T02:24:22;12.65;;;5.07;;
33826;SDS011;20128;45.582;5.298;2023-10-08T02:26:52;14.50;;;4.78;;
33826;SDS011;20128;45.582;5.298;2023-10-08T02:29:20;14.43;;;5.57;;
33826;SDS011;20128;45.582;5.298;2023-10-08T02:31:49;13.20;;;4.65;;
33826;SDS011;20128;45.582;5.298;2023-10-08T02:34:15;15.32;;;5.38;;
33826;SDS011;20128;45.582;5.298;2023-10-08T02:36:41;10.98;;;4.40;;
33826;SDS011;20128;45.582;5.298;2023-10-08T02:39:07;12.88;;;4.70;;
33826;SDS011;20128;45.582;5.298;2023-10-08T02:41:51;14.10;;;5.10;;
33826;SDS011;20128;45.582;5.298;2023-10-08T02:44:19;12.55;;;4.90;;
33826;SDS011;20128;45.582;5.298;2023-10-08T02:46:46;8.07;;;3.72;;
33826;SDS011;20128;45.582;5.298;2023-10-08T02:49:13;10.73;;;4.28;;
33826;SDS011;20128;45.582;5.298;2023-10-08T02:51:48;10.38;;;4.60;;
33826;SDS011;20128;45.582;5.298;2023-10-08T02:54:19;13.10;;;4.60;;
33826;SDS011;20128;45.582;5.298;2023-10-08T02:56:48;12.55;;;4.57;;
33826;SDS011;20128;45.582;5.298;2023-10-08T02:59:29;11.68;;;4.60;;
33826;SDS011;20128;45.582;5.298;2023-10-08T03:02:07;13.52;;;5.07;;
33826;SDS011;20128;45.582;5.298;2023-10-08T03:04:43;13.52;;;4.72;;
33826;SDS011;20128;45.582;5.298;2023-10-08T03:07:16;11.98;;;4.57;;
33826;SDS011;20128;45.582;5.298;2023-10-08T03:09:58;10.68;;;3.97;;
33826;SDS011;20128;45.582;5.298;2023-10-08T03:12:34;12.65;;;4.72;;
33826;SDS011;20128;45.582;5.298;2023-10-08T03:15:01;13.10;;;4.70;;
33826;SDS011;20128;45.582;5.298;2023-10-08T03:17:46;11.32;;;4.60;;
33826;SDS011;20128;45.582;5.298;2023-10-08T03:20:16;9.43;;;3.28;;
33826;SDS011;20128;45.582;5.298;2023-10-08T03:23:03;14.02;;;5.07;;
33826;SDS011;20128;45.582;5.298;2023-10-08T03:25:37;10.10;;;4.03;;
33826;SDS011;20128;45.582;5.298;2023-10-08T03:28:06;9.85;;;3.78;;
33826;SDS011;20128;45.582;5.298;2023-10-08T03:30:34;12.55;;;4.05;;
33826;SDS011;20128;45.582;5.298;2023-10-08T03:33:13;9.52;;;4.28;;
33826;SDS011;20128;45.582;5.298;2023-10-08T03:35:47;11.43;;;4.35;;
33826;SDS011;20128;45.582;5.298;2023-10-08T03:38:20;10.70;;;5.20;;
33826;SDS011;20128;45.582;5.298;2023-10-08T03:41:10;13.23;;;5.05;;
33826;SDS011;20128;45.582;5.298;2023-10-08T03:43:42;16.30;;;5.03;;
33826;SDS011;20128;45.582;5.298;2023-10-08T03:46:30;11.13;;;4.57;;
33826;SDS011;20128;45.582;5.298;2023-10-08T03:48:56;12.13;;;4.43;;
33826;SDS011;20128;45.582;5.298;2023-10-08T03:51:29;10.77;;;4.80;;
33826;SDS011;20128;45.582;5.298;2023-10-08T03:53:55;10.65;;;4.15;;
33826;SDS011;20128;45.582;5.298;2023-10-08T03:56:24;11.02;;;4.22;;
33826;SDS011;20128;45.582;5.298;2023-10-08T03:58:55;9.60;;;4.25;;
33826;SDS011;20128;45.582;5.298;2023-10-08T04:01:25;11.00;;;3.92;;
33826;SDS011;20128;45.582;5.298;2023-10-08T04:03:55;11.02;;;4.68;;
33826;SDS011;20128;45.582;5.298;2023-10-08T04:06:26;13.13;;;4.75;;
33826;SDS011;20128;45.582;5.298;2023-10-08T04:08:59;9.68;;;3.78;;
33826;SDS011;20128;45.582;5.298;2023-10-08T04:11:48;12.63;;;4.95;;
33826;SDS011;20128;45.582;5.298;2023-10-08T04:14:14;12.02;;;4.97;;
33826;SDS011;20128;45.582;5.298;2023-10-08T04:16:44;9.90;;;4.25;;
33826;SDS011;20128;45.582;5.298;2023-10-08T04:19:10;9.10;;;4.63;;
33826;SDS011;20128;45.582;5.298;2023-10-08T04:21:37;9.60;;;4.13;;
33826;SDS011;20128;45.582;5.298;2023-10-08T04:24:07;10.57;;;4.40;;
33826;SDS011;20128;45.582;5.298;2023-10-08T04:26:36;15.60;;;5.32;;
33826;SDS011;20128;45.582;5.298;2023-10-08T04:29:04;9.07;;;4.32;;
33826;SDS011;20128;45.582;5.298;2023-10-08T04:31:32;13.15;;;4.68;;
33826;SDS011;20128;45.582;5.298;2023-10-08T04:34:04;16.48;;;5.00;;
33826;SDS011;20128;45.582;5.298;2023-10-08T04:36:36;11.60;;;4.55;;
33826;SDS011;20128;45.582;5.298;2023-10-08T04:39:05;9.55;;;4.65;;
33826;SDS011;20128;45.582;5.298;2023-10-08T04:41:39;13.37;;;4.53;;
33826;SDS011;20128;45.582;5.298;2023-10-08T04:44:11;15.27;;;5.00;;
33826;SDS011;20128;45.582;5.298;2023-10-08T04:46:43;13.70;;;4.75;;
33826;SDS011;20128;45.582;5.298;2023-10-08T04:49:16;8.68;;;4.15;;
33826;SDS011;20128;45.582;5.298;2023-10-08T04:51:51;12.70;;;4.82;;
33826;SDS011;20128;45.582;5.298;2023-10-08T04:54:22;11.77;;;4.40;;
33826;SDS011;20128;45.582;5.298;2023-10-08T04:56:58;15.75;;;5.32;;
33826;SDS011;20128;45.582;5.298;2023-10-08T04:59:29;11.40;;;4.70;;
33826;SDS011;20128;45.582;5.298;2023-10-08T05:02:03;11.45;;;4.95;;
33826;SDS011;20128;45.582;5.298;2023-10-08T05:04:39;9.57;;;4.65;;
33826;SDS011;20128;45.582;5.298;2023-10-08T05:07:21;10.18;;;4.25;;
33826;SDS011;20128;45.582;5.298;2023-10-08T05:12:51;13.52;;;4.40;;
33826;SDS011;20128;45.582;5.298;2023-10-08T05:15:30;10.85;;;4.80;;
33826;SDS011;20128;45.582;5.298;2023-10-08T05:18:07;10.73;;;4.70;;
33826;SDS011;20128;45.582;5.298;2023-10-08T05:20:48;10.07;;;4.47;;
33826;SDS011;20128;45.582;5.298;2023-10-08T05:23:15;14.13;;;5.13;;
33826;SDS011;20128;45.582;5.298;2023-10-08T05:25:54;12.55;;;5.03;;
33826;SDS011;20128;45.582;5.298;2023-10-08T05:28:27;11.48;;;4.70;;
33826;SDS011;20128;45.582;5.298;2023-10-08T05:30:55;10.30;;;4.15;;
33826;SDS011;20128;45.582;5.298;2023-10-08T05:33:36;15.45;;;5.57;;
33826;SDS011;20128;45.582;5.298;2023-10-08T05:36:20;13.20;;;5.03;;
33826;SDS011;20128;45.582;5.298;2023-10-08T05:39:18;13.35;;;4.82;;
33826;SDS011;20128;45.582;5.298;2023-10-08T05:41:49;11.88;;;5.22;;
33826;SDS011;20128;45.582;5.298;2023-10-08T05:44:51;14.82;;;4.38;;
33826;SDS011;20128;45.582;5.298;2023-10-08T05:47:34;9.30;;;4.65;;
33826;SDS011;20128;45.582;5.298;2023-10-08T05:50:01;11.02;;;4.63;;
33826;SDS011;20128;45.582;5.298;2023-10-08T05:52:43;15.52;;;6.25;;
33826;SDS011;20128;45.582;5.298;2023-10-08T05:55:18;10.13;;;4.63;;
33826;SDS011;20128;45.582;5.298;2023-10-08T05:57:53;10.50;;;4.32;;
33826;SDS011;20128;45.582;5.298;2023-10-08T06:00:38;12.05;;;5.40;;
33826;SDS011;20128;45.582;5.298;2023-10-08T06:03:23;13.85;;;5.18;;
33826;SDS011;20128;45.582;5.298;2023-10-08T06:06:07;12.93;;;5.57;;
33826;SDS011;20128;45.582;5.298;2023-10-08T06:08:39;12.98;;;5.55;;
33826;SDS011;20128;45.582;5.298;2023-10-08T06:11:19;12.23;;;5.18;;
33826;SDS011;20128;45.582;5.298;2023-10-08T06:14:03;9.90;;;4.53;;
33826;SDS011;20128;45.582;5.298;2023-10-08T06:16:38;11.70;;;5.07;;
33826;SDS011;20128;45.582;5.298;2023-10-08T06:19:12;8.88;;;4.75;;
33826;SDS011;20128;45.582;5.298;2023-10-08T06:21:38;50.30;;;7.43;;
33826;SDS011;20128;45.582;5.298;2023-10-08T06:24:06;11.10;;;4.80;;
33826;SDS011;20128;45.582;5.298;2023-10-08T06:26:34;10.80;;;4.72;;
33826;SDS011;20128;45.582;5.298;2023-10-08T06:29:13;19.60;;;4.95;;
33826;SDS011;20128;45.582;5.298;2023-10-08T06:31:56;12.20;;;4.50;;
33826;SDS011;20128;45.582;5.298;2023-10-08T06:34:27;12.05;;;5.35;;
33826;SDS011;20128;45.582;5.298;2023-10-08T06:36:54;15.05;;;4.32;;
33826;SDS011;20128;45.582;5.298;2023-10-08T06:39:21;13.43;;;5.30;;
33826;SDS011;20128;45.582;5.298;2023-10-08T06:41:53;13.73;;;5.03;;
33826;SDS011;20128;45.582;5.298;2023-10-08T06:44:21;11.05;;;5.00;;
33826;SDS011;20128;45.582;5.298;2023-10-08T06:46:48;12.45;;;4.80;;
33826;SDS011;20128;45.582;5.298;2023-10-08T06:49:14;13.40;;;4.93;;
33826;SDS011;20128;45.582;5.298;2023-10-08T06:51:40;13.93;;;5.72;;
33826;SDS011;20128;45.582;5.298;2023-10-08T06:54:08;14.65;;;4.80;;
33826;SDS011;20128;45.582;5.298;2023-10-08T06:56:38;10.68;;;5.45;;
33826;SDS011;20128;45.582;5.298;2023-10-08T06:59:11;14.82;;;5.60;;
33826;SDS011;20128;45.582;5.298;2023-10-08T07:01:38;14.40;;;5.05;;
33826;SDS011;20128;45.582;5.298;2023-10-08T07:04:07;12.27;;;5.13;;
33826;SDS011;20128;45.582;5.298;2023-10-08T07:06:37;13.00;;;5.35;;
33826;SDS011;20128;45.582;5.298;2023-10-08T07:09:04;14.63;;;5.70;;
33826;SDS011;20128;45.582;5.298;2023-10-08T07:11:31;15.65;;;5.40;;
33826;SDS011;20128;45.582;5.298;2023-10-08T07:14:06;10.68;;;5.15;;
33826;SDS011;20128;45.582;5.298;2023-10-08T07:16:35;16.88;;;5.18;;
33826;SDS011;20128;45.582;5.298;2023-10-08T07:19:01;11.80;;;5.30;;
33826;SDS011;20128;45.582;5.298;2023-10-08T07:21:30;13.27;;;4.97;;
33826;SDS011;20128;45.582;5.298;2023-10-08T07:24:09;10.98;;;5.82;;
33826;SDS011;20128;45.582;5.298;2023-10-08T07:26:40;12.20;;;5.32;;
33826;SDS011;20128;45.582;5.298;2023-10-08T07:29:11;13.07;;;5.88;;
33826;SDS011;20128;45.582;5.298;2023-10-08T07:31:38;14.02;;;5.60;;
33826;SDS011;20128;45.582;5.298;2023-10-08T07:34:07;14.50;;;5.63;;
33826;SDS011;20128;45.582;5.298;2023-10-08T07:36:49;14.90;;;5.78;;
33826;SDS011;20128;45.582;5.298;2023-10-08T07:39:16;20.25;;;6.45;;
33826;SDS011;20128;45.582;5.298;2023-10-08T07:41:49;18.73;;;5.75;;
33826;SDS011;20128;45.582;5.298;2023-10-08T07:44:16;13.70;;;5.53;;
33826;SDS011;20128;45.582;5.298;2023-10-08T07:46:46;16.67;;;5.72;;
33826;SDS011;20128;45.582;5.298;2023-10-08T07:49:13;15.38;;;5.15;;
33826;SDS011;20128;45.582;5.298;2023-10-08T07:51:39;15.23;;;5.75;;
33826;SDS011;20128;45.582;5.298;2023-10-08T07:54:05;12.50;;;5.13;;
33826;SDS011;20128;45.582;5.298;2023-10-08T07:56:35;11.07;;;4.68;;
33826;SDS011;20128;45.582;5.298;2023-10-08T07:59:02;13.20;;;5.05;;
33826;SDS011;20128;45.582;5.298;2023-10-08T08:01:33;16.98;;;5.72;;
33826;SDS011;20128;45.582;5.298;2023-10-08T08:04:00;13.90;;;5.20;;
33826;SDS011;20128;45.582;5.298;2023-10-08T08:06:25;13.02;;;5.40;;
33826;SDS011;20128;45.582;5.298;2023-10-08T08:08:51;12.25;;;5.22;;
33826;SDS011;20128;45.582;5.298;2023-10-08T08:11:16;12.88;;;5.72;;
33826;SDS011;20128;45.582;5.298;2023-10-08T08:13:43;12.88;;;5.72;;
33826;SDS011;20128;45.582;5.298;2023-10-08T08:16:15;10.13;;;4.90;;
33826;SDS011;20128;45.582;5.298;2023-10-08T08:18:46;10.88;;;5.25;;
33826;SDS011;20128;45.582;5.298;2023-10-08T08:21:14;11.55;;;5.53;;
33826;SDS011;20128;45.582;5.298;2023-10-08T08:23:43;16.08;;;6.20;;
33826;SDS011;20128;45.582;5.298;2023-10-08T08:26:14;16.75;;;5.63;;
33826;SDS011;20128;45.582;5.298;2023-10-08T08:28:52;12.85;;;5.60;;
33826;SDS011;20128;45.582;5.298;2023-10-08T08:31:22;15.13;;;5.70;;
33826;SDS011;20128;45.582;5.298;2023-10-08T08:33:50;17.58;;;5.95;;
33826;SDS011;20128;45.582;5.298;2023-10-08T08:36:19;18.08;;;5.25;;
33826;SDS011;20128;45.582;5.298;2023-10-08T08:38:46;13.35;;;6.00;;
33826;SDS011;20128;45.582;5.298;2023-10-08T08:41:12;18.83;;;5.68;;
33826;SDS011;20128;45.582;5.298;2023-10-08T08:43:42;12.40;;;5.18;;
33826;SDS011;20128;45.582;5.298;2023-10-08T08:46:31;14.75;;;5.35;;
33826;SDS011;20128;45.582;5.298;2023-10-08T08:49:03;15.85;;;5.25;;
33826;SDS011;20128;45.582;5.298;2023-10-08T08:51:33;9.02;;;4.30;;
33826;SDS011;20128;45.582;5.298;2023-10-08T08:54:02;10.40;;;4.68;;
33826;SDS011;20128;45.582;5.298;2023-10-08T08:56:34;12.23;;;5.35;;
33826;SDS011;20128;45.582;5.298;2023-10-08T08:59:02;10.88;;;4.63;;
33826;SDS011;20128;45.582;5.298;2023-10-08T09:01:29;13.70;;;5.28;;
33826;SDS011;20128;45.582;5.298;2023-10-08T09:03:59;16.45;;;5.63;;
33826;SDS011;20128;45.582;5.298;2023-10-08T09:06:26;9.65;;;4.90;;
33826;SDS011;20128;45.582;5.298;2023-10-08T09:08:52;10.65;;;4.53;;
33826;SDS011;20128;45.582;5.298;2023-10-08T09:11:20;13.50;;;4.80;;
33826;SDS011;20128;45.582;5.298;2023-10-08T09:13:46;14.35;;;4.90;;
33826;SDS011;20128;45.582;5.298;2023-10-08T09:16:15;15.07;;;4.25;;
33826;SDS011;20128;45.582;5.298;2023-10-08T09:18:46;10.35;;;4.45;;
33826;SDS011;20128;45.582;5.298;2023-10-08T09:21:14;10.68;;;4.75;;
33826;SDS011;20128;45.582;5.298;2023-10-08T09:23:42;10.45;;;4.45;;
33826;SDS011;20128;45.582;5.298;2023-10-08T09:26:11;7.53;;;3.95;;
33826;SDS011;20128;45.582;5.298;2023-10-08T09:28:39;12.32;;;5.18;;
33826;SDS011;20128;45.582;5.298;2023-10-08T09:31:11;10.68;;;4.65;;
33826;SDS011;20128;45.582;5.298;2023-10-08T09:33:38;12.23;;;4.80;;
33826;SDS011;20128;45.582;5.298;2023-10-08T09:36:05;12.20;;;4.35;;
33826;SDS011;20128;45.582;5.298;2023-10-08T09:38:35;12.77;;;5.68;;
33826;SDS011;20128;45.582;5.298;2023-10-08T09:41:02;11.20;;;4.43;;
33826;SDS011;20128;45.582;5.298;2023-10-08T09:43:31;12.77;;;5.55;;
33826;SDS011;20128;45.582;5.298;2023-10-08T09:46:08;17.40;;;5.65;;
33826;SDS011;20128;45.582;5.298;2023-10-08T09:48:40;9.50;;;4.18;;
33826;SDS011;20128;45.582;5.298;2023-10-08T09:51:09;9.55;;;4.10;;
33826;SDS011;20128;45.582;5.298;2023-10-08T09:53:43;13.20;;;4.63;;
33826;SDS011;20128;45.582;5.298;2023-10-08T09:56:14;10.95;;;4.13;;
33826;SDS011;20128;45.582;5.298;2023-10-08T09:58:43;9.35;;;4.40;;
33826;SDS011;20128;45.582;5.298;2023-10-08T10:01:09;9.95;;;4.20;;
33826;SDS011;20128;45.582;5.298;2023-10-08T10:03:36;11.35;;;4.50;;
33826;SDS011;20128;45.582;5.298;2023-10-08T10:06:02;12.55;;;4.78;;
33826;SDS011;20128;45.582;5.298;2023-10-08T10:08:30;12.07;;;4.78;;
33826;SDS011;20128;45.582;5.298;2023-10-08T10:11:00;12.55;;;4.32;;
33826;SDS011;20128;45.582;5.298;2023-10-08T10:13:43;10.23;;;4.63;;
33826;SDS011;20128;45.582;5.298;2023-10-08T10:16:17;11.45;;;5.60;;
33826;SDS011;20128;45.582;5.298;2023-10-08T10:18:48;10.45;;;4.70;;
33826;SDS011;20128;45.582;5.298;2023-10-08T10:26:22;19.08;;;8.95;;
33826;SDS011;20128;45.582;5.298;2023-10-08T10:31:34;39.35;;;18.25;;
33826;SDS011;20128;45.582;5.298;2023-10-08T10:34:07;27.20;;;13.25;;
33826;SDS011;20128;45.582;5.298;2023-10-08T10:36:36;23.02;;;11.40;;
33826;SDS011;20128;45.582;5.298;2023-10-08T10:39:04;18.75;;;8.55;;
33826;SDS011;20128;45.582;5.298;2023-10-08T10:41:41;12.52;;;5.18;;
33826;SDS011;20128;45.582;5.298;2023-10-08T10:44:13;16.23;;;5.93;;
33826;SDS011;20128;45.582;5.298;2023-10-08T10:46:44;12.70;;;4.50;;
33826;SDS011;20128;45.582;5.298;2023-10-08T10:49:19;12.85;;;4.68;;
33826;SDS011;20128;45.582;5.298;2023-10-08T10:51:48;14.82;;;5.75;;
33826;SDS011;20128;45.582;5.298;2023-10-08T10:54:18;17.47;;;6.17;;
33826;SDS011;20128;45.582;5.298;2023-10-08T10:56:46;21.90;;;9.27;;
33826;SDS011;20128;45.582;5.298;2023-10-08T10:59:13;29.15;;;12.98;;
33826;SDS011;20128;45.582;5.298;2023-10-08T11:01:48;57.22;;;27.85;;
33826;SDS011;20128;45.582;5.298;2023-10-08T11:04:18;69.97;;;32.88;;
33826;SDS011;20128;45.582;5.298;2023-10-08T11:06:48;79.47;;;35.25;;
33826;SDS011;20128;45.582;5.298;2023-10-08T11:09:16;67.45;;;29.33;;
33826;SDS011;20128;45.582;5.298;2023-10-08T11:12:00;42.45;;;17.15;;
33826;SDS011;20128;45.582;5.298;2023-10-08T11:14:38;12.35;;;5.68;;
33826;SDS011;20128;45.582;5.298;2023-10-08T11:17:23;15.52;;;5.35;;
33826;SDS011;20128;45.582;5.298;2023-10-08T11:19:50;23.70;;;7.43;;
33826;SDS011;20128;45.582;5.298;2023-10-08T11:22:16;18.33;;;7.90;;
33826;SDS011;20128;45.582;5.298;2023-10-08T11:24:43;21.92;;;8.27;;
33826;SDS011;20128;45.582;5.298;2023-10-08T11:27:13;22.83;;;7.30;;
33826;SDS011;20128;45.582;5.298;2023-10-08T11:29:42;25.05;;;9.32;;
33826;SDS011;20128;45.582;5.298;2023-10-08T11:32:21;13.48;;;5.28;;
33826;SDS011;20128;45.582;5.298;2023-10-08T11:34:54;15.90;;;6.00;;
33826;SDS011;20128;45.582;5.298;2023-10-08T11:37:30;18.15;;;6.15;;
33826;SDS011;20128;45.582;5.298;2023-10-08T11:39:59;13.85;;;5.88;;
33826;SDS011;20128;45.582;5.298;2023-10-08T11:42:33;12.07;;;4.65;;
33826;SDS011;20128;45.582;5.298;2023-10-08T11:44:59;9.57;;;4.38;;
33826;SDS011;20128;45.582;5.298;2023-10-08T11:47:25;11.15;;;5.57;;
33826;SDS011;20128;45.582;5.298;2023-10-08T11:49:56;13.73;;;4.90;;
33826;SDS011;20128;45.582;5.298;2023-10-08T11:52:35;11.93;;;5.15;;
33826;SDS011;20128;45.582;5.298;2023-10-08T11:55:10;14.18;;;4.97;;
33826;SDS011;20128;45.582;5.298;2023-10-08T11:57:43;12.35;;;5.18;;
33826;SDS011;20128;45.582;5.298;2023-10-08T12:00:14;10.68;;;4.55;;
33826;SDS011;20128;45.582;5.298;2023-10-08T12:02:50;15.73;;;5.80;;
33826;SDS011;20128;45.582;5.298;2023-10-08T12:05:19;11.63;;;4.85;;
33826;SDS011;20128;45.582;5.298;2023-10-08T12:07:48;13.18;;;3.95;;
33826;SDS011;20128;45.582;5.298;2023-10-08T12:10:16;16.70;;;5.38;;
33826;SDS011;20128;45.582;5.298;2023-10-08T12:15:22;13.82;;;5.65;;
33826;SDS011;20128;45.582;5.298;2023-10-08T12:17:51;17.17;;;4.88;;
33826;SDS011;20128;45.582;5.298;2023-10-08T12:23:04;9.82;;;4.72;;
33826;SDS011;20128;45.582;5.298;2023-10-08T12:25:31;12.93;;;4.85;;
33826;SDS011;20128;45.582;5.298;2023-10-08T12:28:00;10.23;;;4.47;;
33826;SDS011;20128;45.582;5.298;2023-10-08T12:30:30;11.43;;;4.75;;
33826;SDS011;20128;45.582;5.298;2023-10-08T12:32:57;11.23;;;4.82;;
33826;SDS011;20128;45.582;5.298;2023-10-08T12:35:23;9.73;;;4.68;;
33826;SDS011;20128;45.582;5.298;2023-10-08T12:37:52;14.55;;;4.55;;
33826;SDS011;20128;45.582;5.298;2023-10-08T12:40:19;12.18;;;5.25;;
33826;SDS011;20128;45.582;5.298;2023-10-08T12:42:48;12.50;;;5.20;;
33826;SDS011;20128;45.582;5.298;2023-10-08T12:45:15;12.18;;;4.93;;
33826;SDS011;20128;45.582;5.298;2023-10-08T12:47:46;12.57;;;5.57;;
33826;SDS011;20128;45.582;5.298;2023-10-08T12:50:16;18.25;;;5.25;;
33826;SDS011;20128;45.582;5.298;2023-10-08T12:52:48;12.60;;;5.27;;
33826;SDS011;20128;45.582;5.298;2023-10-08T12:55:29;14.23;;;5.43;;
33826;SDS011;20128;45.582;5.298;2023-10-08T12:57:56;15.25;;;5.40;;
33826;SDS011;20128;45.582;5.298;2023-10-08T13:00:31;15.05;;;5.60;;
33826;SDS011;20128;45.582;5.298;2023-10-08T13:02:57;14.02;;;5.07;;
33826;SDS011;20128;45.582;5.298;2023-10-08T13:05:23;11.07;;;5.00;;
33826;SDS011;20128;45.582;5.298;2023-10-08T13:07:56;20.55;;;5.57;;
33826;SDS011;20128;45.582;5.298;2023-10-08T13:10:23;11.75;;;5.50;;
33826;SDS011;20128;45.582;5.298;2023-10-08T13:12:49;14.75;;;5.82;;
33826;SDS011;20128;45.582;5.298;2023-10-08T13:15:15;12.60;;;5.63;;
33826;SDS011;20128;45.582;5.298;2023-10-08T13:17:43;14.55;;;4.90;;
33826;SDS011;20128;45.582;5.298;2023-10-08T13:20:10;17.77;;;4.95;;
33826;SDS011;20128;45.582;5.298;2023-10-08T13:22:38;11.60;;;4.97;;
33826;SDS011;20128;45.582;5.298;2023-10-08T13:25:04;13.27;;;4.80;;
33826;SDS011;20128;45.582;5.298;2023-10-08T13:27:31;13.57;;;5.00;;
33826;SDS011;20128;45.582;5.298;2023-10-08T13:29:57;16.83;;;4.95;;
33826;SDS011;20128;45.582;5.298;2023-10-08T13:32:23;16.30;;;5.72;;
33826;SDS011;20128;45.582;5.298;2023-10-08T13:34:49;18.23;;;4.65;;
33826;SDS011;20128;45.582;5.298;2023-10-08T13:37:15;10.32;;;4.53;;
33826;SDS011;20128;45.582;5.298;2023-10-08T13:39:41;13.10;;;6.13;;
33826;SDS011;20128;45.582;5.298;2023-10-08T13:42:07;13.48;;;5.13;;
33826;SDS011;20128;45.582;5.298;2023-10-08T13:44:32;14.50;;;5.22;;
33826;SDS011;20128;45.582;5.298;2023-10-08T13:47:00;15.45;;;4.82;;
33826;SDS011;20128;45.582;5.298;2023-10-08T13:49:30;14.85;;;5.80;;
33826;SDS011;20128;45.582;5.298;2023-10-08T13:51:57;13.82;;;5.47;;
33826;SDS011;20128;45.582;5.298;2023-10-08T13:54:23;14.10;;;5.25;;
33826;SDS011;20128;45.582;5.298;2023-10-08T13:56:54;13.05;;;5.35;;
33826;SDS011;20128;45.582;5.298;2023-10-08T13:59:21;18.08;;;5.47;;
33826;SDS011;20128;45.582;5.298;2023-10-08T14:01:49;11.80;;;5.20;;
33826;SDS011;20128;45.582;5.298;2023-10-08T14:04:19;13.90;;;5.43;;
33826;SDS011;20128;45.582;5.298;2023-10-08T14:06:51;22.55;;;6.15;;
33826;SDS011;20128;45.582;5.298;2023-10-08T14:09:17;15.35;;;5.05;;
33826;SDS011;20128;45.582;5.298;2023-10-08T14:11:47;13.68;;;5.03;;
33826;SDS011;20128;45.582;5.298;2023-10-08T14:14:17;11.90;;;6.15;;
33826;SDS011;20128;45.582;5.298;2023-10-08T14:16:45;14.75;;;5.75;;
33826;SDS011;20128;45.582;5.298;2023-10-08T14:19:16;15.02;;;6.55;;
33826;SDS011;20128;45.582;5.298;2023-10-08T14:21:43;16.98;;;6.15;;
33826;SDS011;20128;45.582;5.298;2023-10-08T14:24:19;15.70;;;6.47;;
33826;SDS011;20128;45.582;5.298;2023-10-08T14:26:46;18.17;;;6.30;;
33826;SDS011;20128;45.582;5.298;2023-10-08T14:29:19;14.27;;;6.13;;
33826;SDS011;20128;45.582;5.298;2023-10-08T14:31:46;13.95;;;5.40;;
33826;SDS011;20128;45.582;5.298;2023-10-08T14:34:14;14.98;;;6.03;;
33826;SDS011;20128;45.582;5.298;2023-10-08T14:36:46;17.30;;;5.55;;
33826;SDS011;20128;45.582;5.298;2023-10-08T14:39:32;18.77;;;5.82;;
33826;SDS011;20128;45.582;5.298;2023-10-08T14:42:17;18.13;;;6.63;;
33826;SDS011;20128;45.582;5.298;2023-10-08T14:45:02;15.13;;;5.32;;
33826;SDS011;20128;45.582;5.298;2023-10-08T14:47:31;18.15;;;5.82;;
33826;SDS011;20128;45.582;5.298;2023-10-08T14:49:56;15.48;;;5.28;;
33826;SDS011;20128;45.582;5.298;2023-10-08T14:52:22;14.50;;;5.28;;
33826;SDS011;20128;45.582;5.298;2023-10-08T14:54:49;11.88;;;5.40;;
33826;SDS011;20128;45.582;5.298;2023-10-08T14:57:16;16.58;;;5.40;;
33826;SDS011;20128;45.582;5.298;2023-10-08T14:59:43;13.63;;;5.60;;
33826;SDS011;20128;45.582;5.298;2023-10-08T15:02:09;10.25;;;5.03;;
33826;SDS011;20128;45.582;5.298;2023-10-08T15:04:36;20.25;;;5.63;;
33826;SDS011;20128;45.582;5.298;2023-10-08T15:07:04;14.07;;;5.55;;
33826;SDS011;20128;45.582;5.298;2023-10-08T15:09:36;18.95;;;5.43;;
33826;SDS011;20128;45.582;5.298;2023-10-08T15:12:02;13.95;;;5.15;;
33826;SDS011;20128;45.582;5.298;2023-10-08T15:14:28;16.88;;;5.65;;